Time;durP1;ratioP1;P1;durP2;ratioP2;P2;SDS_P1;SDS_P2;PMS_P1;PMS_P2;Temp;Humidity;BMP_temperature;BMP_pressure;BME280_temperature;BME280_humidity;BME280_pressure;Samples;Min_cycle;Max_cycle;Signal;HPM_P1;HPM_P2
2023/11/11 00:00:36;;;;;;;2.15;1.42;;;9.70;83.90;;;;;;5046002;28;20032;-65
2023/11/11 00:03:05;;;;;;;2.05;1.50;;;9.70;84.00;;;;;;5065605;28;20037;-64
2023/11/11 00:05:31;;;;;;;1.40;1.30;;;9.70;83.90;;;;;;5062291;28;20044;-64
2023/11/11 00:07:57;;;;;;;2.78;1.70;;;9.60;84.40;;;;;;5060589;28;20021;-64
2023/11/11 00:10:23;;;;;;;2.65;1.83;;;9.60;83.90;;;;;;5044106;28;20040;-64
2023/11/11 00:12:49;;;;;;;3.08;2.70;;;9.60;83.90;;;;;;5044516;28;20048;-64
2023/11/11 00:15:15;;;;;;;3.58;1.83;;;9.60;83.90;;;;;;5061339;28;20039;-72
2023/11/11 00:17:41;;;;;;;3.63;2.05;;;9.50;83.90;;;;;;5067524;28;20560;-72
2023/11/11 00:20:12;;;;;;;3.17;2.33;;;9.50;83.90;;;;;;5047672;28;20062;-65
2023/11/11 00:22:39;;;;;;;1.85;1.55;;;9.50;84.00;;;;;;5046849;28;20125;-64
2023/11/11 00:25:06;;;;;;;3.10;1.85;;;9.50;84.00;;;;;;5029031;28;20378;-71
2023/11/11 00:27:32;;;;;;;2.95;1.80;;;9.50;84.00;;;;;;5063017;28;20021;-65
2023/11/11 00:29:58;;;;;;;3.05;2.33;;;9.50;83.90;;;;;;5055040;28;20032;-64
2023/11/11 00:32:24;;;;;;;3.30;2.17;;;9.50;83.80;;;;;;5042699;28;20087;-71
2023/11/11 00:34:49;;;;;;;2.53;1.90;;;9.40;83.90;;;;;;5062906;28;20632;-64
2023/11/11 00:37:17;;;;;;;3.50;1.95;;;9.40;84.00;;;;;;5028910;28;20041;-65
2023/11/11 00:39:43;;;;;;;2.03;1.45;;;9.40;84.00;;;;;;5061477;28;20041;-72
2023/11/11 00:42:10;;;;;;;2.60;2.33;;;9.40;84.00;;;;;;5060571;28;20028;-64
2023/11/11 00:44:37;;;;;;;1.92;1.67;;;9.40;83.90;;;;;;5044696;28;20512;-64
2023/11/11 00:47:04;;;;;;;3.80;1.88;;;9.30;83.80;;;;;;5064802;28;20385;-64
2023/11/11 00:49:30;;;;;;;2.97;1.80;;;9.30;83.70;;;;;;5063652;28;20060;-64
2023/11/11 00:51:56;;;;;;;3.30;2.05;;;9.30;83.70;;;;;;5058327;28;20551;-64
2023/11/11 00:54:21;;;;;;;3.05;1.90;;;9.30;83.60;;;;;;5046456;28;20389;-64
2023/11/11 00:56:47;;;;;;;2.10;1.65;;;9.20;83.50;;;;;;5068306;28;20040;-64
2023/11/11 00:59:13;;;;;;;2.67;2.03;;;9.20;83.50;;;;;;5064106;28;20045;-64
2023/11/11 01:01:39;;;;;;;4.85;2.58;;;9.20;83.50;;;;;;5025914;28;20029;-64
2023/11/11 01:04:05;;;;;;;2.83;2.20;;;9.10;83.50;;;;;;5051879;28;20401;-72
2023/11/11 01:06:31;;;;;;;3.65;2.25;;;9.10;83.50;;;;;;5064522;28;20025;-72
2023/11/11 01:08:56;;;;;;;2.72;1.80;;;9.10;83.50;;;;;;5068578;28;20031;-72
2023/11/11 01:11:22;;;;;;;2.38;1.90;;;9.00;83.50;;;;;;5059684;28;20025;-72
2023/11/11 01:13:48;;;;;;;2.60;1.77;;;9.00;83.40;;;;;;5069324;28;20474;-72
2023/11/11 01:16:15;;;;;;;2.53;2.05;;;9.00;83.40;;;;;;5035880;28;20039;-65
2023/11/11 01:18:41;;;;;;;2.83;1.85;;;8.90;83.40;;;;;;5067283;28;20044;-64
2023/11/11 01:21:06;;;;;;;2.15;1.70;;;8.90;83.40;;;;;;5067528;28;20036;-64
2023/11/11 01:23:33;;;;;;;3.95;2.58;;;8.90;83.40;;;;;;5045101;28;20036;-72
2023/11/11 01:26:02;;;;;;;2.35;1.52;;;8.90;83.50;;;;;;5063807;28;20032;-72
2023/11/11 01:28:31;;;;;;;3.90;1.88;;;8.90;83.50;;;;;;5060479;28;20485;-72
2023/11/11 01:30:57;;;;;;;3.05;1.88;;;8.90;83.50;;;;;;5059588;28;20027;-64
2023/11/11 01:33:24;;;;;;;4.13;2.17;;;8.90;83.40;;;;;;5033257;28;20421;-64
2023/11/11 01:35:50;;;;;;;2.35;1.90;;;8.90;83.30;;;;;;5045864;28;20127;-64
2023/11/11 01:38:20;;;;;;;2.42;1.88;;;8.80;83.30;;;;;;5063305;28;20028;-72
2023/11/11 01:40:46;;;;;;;3.53;1.63;;;8.80;83.30;;;;;;5045262;28;20437;-65
2023/11/11 01:43:13;;;;;;;1.73;1.20;;;8.80;83.40;;;;;;5068395;28;20385;-64
2023/11/11 01:45:42;;;;;;;3.33;1.70;;;8.80;83.30;;;;;;5066248;28;20024;-72
2023/11/11 01:48:09;;;;;;;1.52;1.30;;;8.80;83.20;;;;;;5061510;28;20369;-64
2023/11/11 01:50:37;;;;;;;1.73;1.35;;;8.80;83.20;;;;;;5063024;28;20517;-64
2023/11/11 01:53:05;;;;;;;3.55;1.75;;;8.80;83.40;;;;;;5068234;28;20043;-64
2023/11/11 01:55:32;;;;;;;4.32;1.58;;;8.80;83.60;;;;;;5060330;28;20530;-72
2023/11/11 01:57:58;;;;;;;3.13;1.83;;;8.90;83.70;;;;;;5040748;28;20481;-72
2023/11/11 02:00:26;;;;;;;1.65;1.23;;;8.90;84.10;;;;;;5046829;28;20040;-72
2023/11/11 02:02:53;;;;;;;2.15;0.85;;;9.00;84.20;;;;;;5070229;28;20044;-72
2023/11/11 02:05:20;;;;;;;2.03;1.02;;;9.10;84.20;;;;;;5044328;28;20024;-72
2023/11/11 02:07:46;;;;;;;3.03;1.55;;;9.10;84.20;;;;;;5061302;28;20017;-72
2023/11/11 02:10:13;;;;;;;2.47;1.38;;;9.20;84.10;;;;;;5027021;28;20055;-72
2023/11/11 02:12:39;;;;;;;2.33;1.15;;;9.20;84.00;;;;;;5059387;28;20400;-72
2023/11/11 02:15:09;;;;;;;2.45;1.30;;;9.20;84.00;;;;;;5061674;28;20029;-72
2023/11/11 02:17:34;;;;;;;1.70;1.15;;;9.20;84.10;;;;;;5045006;28;20037;-72
2023/11/11 02:20:00;;;;;;;2.78;1.50;;;9.20;84.20;;;;;;5062781;28;20021;-72
2023/11/11 02:22:26;;;;;;;1.38;0.80;;;9.30;84.20;;;;;;5069840;28;20477;-72
2023/11/11 02:24:56;;;;;;;1.50;1.25;;;9.30;84.10;;;;;;5060009;28;20031;-72
2023/11/11 02:27:22;;;;;;;1.45;0.85;;;9.30;84.20;;;;;;5062571;28;20532;-72
2023/11/11 02:29:48;;;;;;;4.57;1.52;;;9.30;84.20;;;;;;5057880;28;20033;-71
2023/11/11 02:32:14;;;;;;;2.25;1.45;;;9.30;84.20;;;;;;5045910;28;20094;-71
2023/11/11 02:34:40;;;;;;;1.05;0.95;;;9.30;84.20;;;;;;5067842;28;20481;-71
2023/11/11 02:37:06;;;;;;;1.08;0.95;;;9.30;84.30;;;;;;5062424;28;20025;-71
2023/11/11 02:39:31;;;;;;;2.05;1.00;;;9.30;84.20;;;;;;5066041;28;20078;-71
2023/11/11 02:41:57;;;;;;;1.10;0.65;;;9.40;84.10;;;;;;5064513;28;20504;-64
2023/11/11 02:44:23;;;;;;;1.05;0.82;;;9.40;84.10;;;;;;5063029;28;20025;-71
2023/11/11 02:46:48;;;;;;;2.17;1.02;;;9.40;84.00;;;;;;5049187;28;20020;-71
2023/11/11 02:49:14;;;;;;;1.33;0.88;;;9.40;83.90;;;;;;5062328;28;20499;-71
2023/11/11 02:51:40;;;;;;;2.53;0.90;;;9.30;83.80;;;;;;5057262;28;20441;-72
2023/11/11 02:54:06;;;;;;;0.68;0.57;;;9.30;83.70;;;;;;5065105;28;20043;-64
2023/11/11 02:56:31;;;;;;;1.23;0.70;;;9.30;83.70;;;;;;5061065;28;20037;-64
2023/11/11 02:58:57;;;;;;;2.03;0.77;;;9.30;83.70;;;;;;5049864;28;20024;-64
2023/11/11 03:01:23;;;;;;;2.35;0.65;;;9.20;83.70;;;;;;5055769;28;20033;-71
2023/11/11 03:03:49;;;;;;;1.10;0.80;;;9.20;83.80;;;;;;5042052;28;20060;-64
2023/11/11 03:06:15;;;;;;;0.60;0.40;;;9.20;83.70;;;;;;5050195;28;20031;-63
2023/11/11 03:08:41;;;;;;;1.90;0.77;;;9.10;83.80;;;;;;5068568;28;20036;-71
2023/11/11 03:11:09;;;;;;;1.52;0.80;;;9.20;83.80;;;;;;5064266;28;20032;-71
2023/11/11 03:13:35;;;;;;;1.88;0.52;;;9.20;83.80;;;;;;5046781;28;20036;-72
2023/11/11 03:16:00;;;;;;;1.45;0.63;;;9.20;83.80;;;;;;5038470;28;20020;-72
2023/11/11 03:18:26;;;;;;;1.00;0.68;;;9.20;83.80;;;;;;5063493;28;20029;-64
2023/11/11 03:20:52;;;;;;;0.70;0.65;;;9.20;83.80;;;;;;5047709;28;20032;-64
2023/11/11 03:23:18;;;;;;;0.43;0.43;;;9.20;83.80;;;;;;5058078;28;20389;-64
2023/11/11 03:25:44;;;;;;;1.88;0.38;;;9.20;83.90;;;;;;5058752;28;20032;-64
2023/11/11 03:28:10;;;;;;;1.15;0.50;;;9.20;84.00;;;;;;5061426;28;20029;-64
2023/11/11 03:30:36;;;;;;;1.27;0.70;;;9.20;84.10;;;;;;5058645;28;20397;-64
2023/11/11 03:33:01;;;;;;;1.52;0.95;;;9.20;84.10;;;;;;5041819;28;20369;-64
2023/11/11 03:35:28;;;;;;;0.28;0.28;;;9.20;84.10;;;;;;5058452;28;20033;-64
2023/11/11 03:37:54;;;;;;;0.40;0.40;;;9.20;84.00;;;;;;5042578;28;20497;-63
2023/11/11 03:40:20;;;;;;;3.90;0.70;;;9.30;83.90;;;;;;5021518;28;20048;-71
2023/11/11 03:42:45;;;;;;;0.50;0.30;;;9.30;83.90;;;;;;5060860;28;20040;-63
2023/11/11 03:45:12;;;;;;;0.30;0.28;;;9.30;83.80;;;;;;5057557;28;20076;-64
2023/11/11 03:47:40;;;;;;;0.20;0.20;;;9.20;83.70;;;;;;5060707;28;20202;-71
2023/11/11 03:50:07;;;;;;;0.30;0.30;;;9.20;83.60;;;;;;5054677;28;20478;-71
2023/11/11 03:52:33;;;;;;;0.95;0.30;;;9.20;83.60;;;;;;5039654;28;20043;-72
2023/11/11 03:54:58;;;;;;;0.57;0.40;;;9.20;83.70;;;;;;5057168;28;20028;-71
2023/11/11 03:57:24;;;;;;;0.32;0.30;;;9.10;83.80;;;;;;5062209;28;20041;-71
2023/11/11 03:59:50;;;;;;;3.50;0.73;;;9.10;83.70;;;;;;5040073;28;20032;-71
2023/11/11 04:02:15;;;;;;;0.30;0.30;;;9.10;83.70;;;;;;5057452;28;20033;-71
2023/11/11 04:04:43;;;;;;;0.57;0.30;;;9.10;83.70;;;;;;5060169;28;20041;-63
2023/11/11 04:07:09;;;;;;;0.20;0.20;;;9.10;83.70;;;;;;5058788;28;20032;-64
2023/11/11 04:09:36;;;;;;;0.70;0.40;;;9.10;83.60;;;;;;5065021;28;20128;-64
2023/11/11 04:12:01;;;;;;;0.30;0.30;;;9.10;83.60;;;;;;5059902;28;20029;-64
2023/11/11 04:14:27;;;;;;;0.63;0.30;;;9.00;83.50;;;;;;5061986;28;20031;-64
2023/11/11 04:16:53;;;;;;;0.98;0.30;;;9.00;83.60;;;;;;5066024;28;20086;-71
2023/11/11 04:19:20;;;;;;;4.78;1.05;;;8.90;83.70;;;;;;5025498;28;20481;-64
2023/11/11 04:21:50;;;;;;;0.22;0.22;;;8.90;83.90;;;;;;5067169;28;20031;-64
2023/11/11 04:24:17;;;;;;;0.30;0.22;;;8.90;84.10;;;;;;5062815;28;20024;-64
2023/11/11 04:26:44;;;;;;;0.57;0.50;;;8.90;84.00;;;;;;5051902;28;20056;-64
2023/11/11 04:29:13;;;;;;;0.30;0.30;;;8.90;84.00;;;;;;5058891;28;20033;-71
2023/11/11 04:31:38;;;;;;;0.20;0.20;;;8.90;84.00;;;;;;5058913;28;20116;-72
2023/11/11 04:34:04;;;;;;;0.38;0.38;;;8.80;84.10;;;;;;5061768;28;20115;-71
2023/11/11 04:36:30;;;;;;;0.98;0.60;;;8.80;84.20;;;;;;5042957;28;20083;-72
2023/11/11 04:38:56;;;;;;;0.30;0.30;;;8.80;84.20;;;;;;5068236;28;20559;-72
2023/11/11 04:41:23;;;;;;;0.43;0.40;;;8.90;84.30;;;;;;5049670;28;20111;-72
2023/11/11 04:43:51;;;;;;;0.20;0.20;;;8.90;84.30;;;;;;5047182;28;20139;-64
2023/11/11 04:46:17;;;;;;;0.40;0.40;;;8.90;84.10;;;;;;5068281;28;20115;-71
2023/11/11 04:48:43;;;;;;;3.83;0.32;;;8.90;84.20;;;;;;5063280;28;20428;-71
2023/11/11 04:51:09;;;;;;;0.40;0.40;;;8.90;84.20;;;;;;5068978;28;20032;-64
2023/11/11 04:53:35;;;;;;;1.35;0.45;;;8.90;84.20;;;;;;5066661;28;20037;-64
2023/11/11 04:56:02;;;;;;;0.88;0.40;;;9.00;84.20;;;;;;5065427;28;20036;-73
2023/11/11 04:58:28;;;;;;;0.70;0.40;;;9.00;84.00;;;;;;5059966;28;20035;-71
2023/11/11 05:00:54;;;;;;;1.05;0.55;;;9.00;84.10;;;;;;5044447;28;20041;-72
2023/11/11 05:03:20;;;;;;;1.83;0.82;;;9.00;84.20;;;;;;5063239;28;20459;-72
2023/11/11 05:05:46;;;;;;;1.38;0.68;;;9.00;84.30;;;;;;5062099;28;20082;-72
2023/11/11 05:08:12;;;;;;;0.50;0.43;;;9.00;84.50;;;;;;5042058;28;20024;-72
2023/11/11 05:10:39;;;;;;;0.88;0.82;;;9.00;84.50;;;;;;5038632;28;20037;-72
2023/11/11 05:13:10;;;;;;;0.50;0.50;;;9.10;85.10;;;;;;5062379;28;20051;-72
2023/11/11 05:15:42;;;;;;;1.23;0.60;;;9.10;84.40;;;;;;5059377;28;20090;-64
2023/11/11 05:18:09;;;;;;;0.60;0.57;;;9.20;84.50;;;;;;5046037;28;20405;-64
2023/11/11 05:20:35;;;;;;;0.40;0.40;;;9.20;84.50;;;;;;5041184;28;20051;-65
2023/11/11 05:23:01;;;;;;;1.02;0.52;;;9.20;84.40;;;;;;5040255;28;20112;-72
2023/11/11 05:25:28;;;;;;;0.32;0.32;;;9.20;84.30;;;;;;5027045;28;20079;-72
2023/11/11 05:27:53;;;;;;;1.95;0.85;;;9.30;84.30;;;;;;5059058;28;20530;-72
2023/11/11 05:30:19;;;;;;;0.80;0.40;;;9.20;84.30;;;;;;5056322;28;20568;-72
2023/11/11 05:32:45;;;;;;;1.38;0.60;;;9.20;84.30;;;;;;5059957;28;20082;-64
2023/11/11 05:35:12;;;;;;;1.27;0.70;;;9.20;84.30;;;;;;5059849;28;20425;-64
2023/11/11 05:37:42;;;;;;;0.60;0.40;;;9.20;84.40;;;;;;5065921;28;20039;-72
2023/11/11 05:40:10;;;;;;;0.32;0.30;;;9.20;84.40;;;;;;5065882;28;20457;-64
2023/11/11 05:42:36;;;;;;;0.30;0.30;;;9.10;84.20;;;;;;5064693;28;20041;-65
2023/11/11 05:45:02;;;;;;;1.10;0.50;;;9.10;84.30;;;;;;5058414;28;20029;-64
2023/11/11 05:47:28;;;;;;;1.55;0.32;;;9.10;84.40;;;;;;5068229;28;20040;-64
2023/11/11 05:49:55;;;;;;;0.50;0.43;;;9.10;84.40;;;;;;5064855;28;20378;-64
2023/11/11 05:52:21;;;;;;;0.93;0.82;;;9.10;84.30;;;;;;5066145;28;20072;-64
2023/11/11 05:54:46;;;;;;;0.57;0.30;;;9.00;84.20;;;;;;5059531;28;20060;-72
2023/11/11 05:57:12;;;;;;;2.83;0.43;;;8.90;84.30;;;;;;5065135;28;20405;-72
2023/11/11 05:59:39;;;;;;;0.30;0.30;;;9.00;84.40;;;;;;5041552;28;20401;-72
2023/11/11 06:02:05;;;;;;;0.10;0.10;;;8.90;84.50;;;;;;5058777;28;20037;-65
2023/11/11 06:04:34;;;;;;;0.93;0.40;;;8.90;84.80;;;;;;5060085;28;20048;-65
2023/11/11 06:07:01;;;;;;;0.30;0.30;;;8.90;84.70;;;;;;5062435;28;20112;-65
2023/11/11 06:09:27;;;;;;;0.35;0.32;;;8.90;84.60;;;;;;5046955;28;20033;-65
2023/11/11 06:11:53;;;;;;;0.28;0.28;;;8.90;84.60;;;;;;5062416;28;20485;-65
2023/11/11 06:14:18;;;;;;;0.60;0.40;;;8.90;84.50;;;;;;5062943;28;20039;-65
2023/11/11 06:16:48;;;;;;;0.35;0.25;;;8.90;84.40;;;;;;5046427;28;20028;-65
2023/11/11 06:19:16;;;;;;;0.28;0.28;;;8.90;84.50;;;;;;5040931;28;20031;-65
2023/11/11 06:21:42;;;;;;;1.30;0.50;;;8.80;84.30;;;;;;5043285;28;20527;-65
2023/11/11 06:24:08;;;;;;;2.40;0.20;;;8.80;84.50;;;;;;5046974;28;20851;-65
2023/11/11 06:26:36;;;;;;;0.70;0.30;;;8.80;84.60;;;;;;5058538;28;20477;-65
2023/11/11 06:29:03;;;;;;;0.50;0.32;;;8.80;84.60;;;;;;5060868;28;20095;-65
2023/11/11 06:31:29;;;;;;;1.63;0.80;;;8.80;84.40;;;;;;5037272;28;20025;-65
2023/11/11 06:33:54;;;;;;;0.77;0.40;;;8.80;84.20;;;;;;5050001;28;20032;-65
2023/11/11 06:36:20;;;;;;;0.30;0.30;;;8.80;84.10;;;;;;5044263;28;20059;-65
2023/11/11 06:38:46;;;;;;;0.65;0.30;;;8.90;84.20;;;;;;5067743;28;20105;-72
2023/11/11 06:41:12;;;;;;;0.20;0.20;;;8.90;84.10;;;;;;5062300;28;20056;-72
2023/11/11 06:43:38;;;;;;;0.10;0.10;;;9.00;83.80;;;;;;5059326;28;20516;-73
2023/11/11 06:46:06;;;;;;;0.20;0.20;;;9.00;83.70;;;;;;5060667;28;20032;-72
2023/11/11 06:48:33;;;;;;;0.70;0.30;;;9.00;83.60;;;;;;5062013;28;20676;-72
2023/11/11 06:50:58;;;;;;;0.35;0.30;;;9.10;83.50;;;;;;5064455;28;20020;-72
2023/11/11 06:53:24;;;;;;;0.28;0.28;;;9.10;83.50;;;;;;5061390;28;20032;-72
2023/11/11 06:55:50;;;;;;;0.68;0.22;;;9.10;83.20;;;;;;5046114;28;20031;-65
2023/11/11 06:58:16;;;;;;;0.77;0.30;;;9.10;83.00;;;;;;5044243;28;20032;-65
2023/11/11 07:00:41;;;;;;;0.22;0.20;;;9.10;83.10;;;;;;5062976;28;20060;-72
2023/11/11 07:03:08;;;;;;;0.20;0.20;;;9.10;83.10;;;;;;5062642;28;20048;-65
2023/11/11 07:05:35;;;;;;;0.98;0.40;;;9.10;82.90;;;;;;5063645;28;20028;-65
2023/11/11 07:08:02;;;;;;;0.40;0.40;;;9.00;82.70;;;;;;5049949;28;20753;-65
2023/11/11 07:10:30;;;;;;;0.57;0.35;;;9.00;82.70;;;;;;5042849;28;20017;-65
2023/11/11 07:12:56;;;;;;;1.15;0.43;;;8.90;82.80;;;;;;5066397;28;20381;-65
2023/11/11 07:15:23;;;;;;;3.85;0.65;;;9.00;82.90;;;;;;5064329;28;20492;-65
2023/11/11 07:17:49;;;;;;;0.55;0.10;;;8.90;82.90;;;;;;5065694;28;20027;-72
2023/11/11 07:20:21;;;;;;;0.28;0.28;;;8.90;83.00;;;;;;5059842;28;20023;-65
2023/11/11 07:22:54;;;;;;;1.58;0.57;;;8.90;83.10;;;;;;5066098;28;20067;-73
2023/11/11 07:25:23;;;;;;;0.30;0.30;;;8.80;83.10;;;;;;5060159;28;20043;-73
2023/11/11 07:27:49;;;;;;;0.77;0.63;;;8.80;83.30;;;;;;5043597;28;20024;-73
2023/11/11 07:30:15;;;;;;;0.30;0.30;;;8.80;83.20;;;;;;5066410;28;20033;-73
2023/11/11 07:32:40;;;;;;;0.57;0.57;;;8.80;83.10;;;;;;5065163;28;20495;-73
2023/11/11 07:35:10;;;;;;;0.55;0.40;;;8.80;83.20;;;;;;5065087;28;20035;-73
2023/11/11 07:37:42;;;;;;;4.28;0.70;;;8.80;83.10;;;;;;5053125;28;20063;-73
2023/11/11 07:40:08;;;;;;;0.20;0.20;;;8.80;83.20;;;;;;5057587;28;20036;-73
2023/11/11 07:42:34;;;;;;;0.35;0.30;;;8.80;83.20;;;;;;5057852;28;20036;-73
2023/11/11 07:45:02;;;;;;;2.92;0.50;;;8.90;83.00;;;;;;5059116;28;20115;-73
2023/11/11 07:47:30;;;;;;;0.25;0.25;;;8.90;82.90;;;;;;5045812;28;20279;-73
2023/11/11 07:49:55;;;;;;;0.30;0.30;;;8.80;82.80;;;;;;5061985;28;20540;-73
2023/11/11 07:52:22;;;;;;;0.55;0.50;;;8.80;82.60;;;;;;5028889;28;20107;-73
2023/11/11 07:54:48;;;;;;;0.10;0.10;;;8.70;82.40;;;;;;5044924;28;20041;-65
2023/11/11 07:57:15;;;;;;;0.17;0.13;;;8.70;82.30;;;;;;5060062;28;20051;-73
2023/11/11 07:59:43;;;;;;;0.17;0.17;;;8.70;82.30;;;;;;5057039;28;20059;-73
2023/11/11 08:02:12;;;;;;;0.45;0.40;;;8.70;82.40;;;;;;5044182;28;20063;-73
2023/11/11 08:04:38;;;;;;;1.90;0.50;;;8.70;82.30;;;;;;5058543;28;20079;-73
2023/11/11 08:07:06;;;;;;;0.28;0.28;;;8.70;82.00;;;;;;5060839;28;20539;-73
2023/11/11 08:09:32;;;;;;;0.52;0.20;;;8.70;82.10;;;;;;5059052;28;20055;-73
2023/11/11 08:11:58;;;;;;;0.77;0.40;;;8.70;82.10;;;;;;5061900;28;20029;-66
2023/11/11 08:14:24;;;;;;;0.20;0.20;;;8.70;82.20;;;;;;5058935;28;20033;-65
2023/11/11 08:16:49;;;;;;;0.20;0.10;;;8.80;82.20;;;;;;5054516;28;20076;-65
2023/11/11 08:19:15;;;;;;;0.10;0.10;;;8.80;82.30;;;;;;5036483;28;20033;-65
2023/11/11 08:21:41;;;;;;;0.10;0.10;;;8.80;82.20;;;;;;5051420;28;20059;-73
2023/11/11 08:24:08;;;;;;;0.25;0.25;;;8.90;82.10;;;;;;5053659;28;20033;-73
2023/11/11 08:26:33;;;;;;;0.77;0.28;;;9.00;81.70;;;;;;5057305;28;20025;-64
2023/11/11 08:28:59;;;;;;;0.43;0.40;;;9.00;81.20;;;;;;5058570;28;20040;-65
2023/11/11 08:31:25;;;;;;;1.13;0.30;;;9.10;81.20;;;;;;5056467;28;20048;-66
2023/11/11 08:33:51;;;;;;;4.68;0.38;;;9.10;80.80;;;;;;5018288;28;20079;-65
2023/11/11 08:36:20;;;;;;;1.70;0.20;;;9.20;80.90;;;;;;5054903;28;20081;-69
2023/11/11 08:38:46;;;;;;;1.23;0.40;;;9.30;80.90;;;;;;5055412;28;20040;-70
2023/11/11 08:41:12;;;;;;;0.20;0.20;;;9.40;80.80;;;;;;5057148;28;20025;-70
2023/11/11 08:43:39;;;;;;;0.63;0.43;;;9.50;80.80;;;;;;5025248;28;20040;-69
2023/11/11 08:46:07;;;;;;;0.88;0.35;;;9.70;80.50;;;;;;5054116;28;20558;-69
2023/11/11 08:48:34;;;;;;;1.13;0.43;;;9.80;80.30;;;;;;5062553;28;20033;-70
2023/11/11 08:51:00;;;;;;;0.20;0.20;;;9.80;80.20;;;;;;5050581;28;20464;-64
2023/11/11 08:53:27;;;;;;;0.80;0.20;;;9.80;80.20;;;;;;5050660;28;20497;-65
2023/11/11 08:55:52;;;;;;;1.23;0.60;;;9.80;80.20;;;;;;5055384;28;20036;-66
2023/11/11 08:58:19;;;;;;;0.30;0.10;;;9.80;80.30;;;;;;5041310;28;20044;-65
2023/11/11 09:00:46;;;;;;;0.55;0.40;;;9.80;80.30;;;;;;5053402;28;20048;-65
2023/11/11 09:03:12;;;;;;;0.20;0.20;;;9.80;80.40;;;;;;5056411;28;20516;-65
2023/11/11 09:05:37;;;;;;;0.63;0.45;;;9.90;80.60;;;;;;5049451;28;20128;-64
2023/11/11 09:08:05;;;;;;;0.20;0.20;;;10.00;80.20;;;;;;5057303;28;20366;-63
2023/11/11 09:10:31;;;;;;;0.20;0.20;;;10.20;80.00;;;;;;5042591;28;20029;-65
2023/11/11 09:12:57;;;;;;;0.25;0.20;;;10.30;79.00;;;;;;5042284;28;20074;-63
2023/11/11 09:15:23;;;;;;;0.20;0.20;;;10.30;79.10;;;;;;5044113;28;20482;-71
2023/11/11 09:17:49;;;;;;;1.10;0.85;;;10.20;78.90;;;;;;5055949;28;20033;-65
2023/11/11 09:20:17;;;;;;;0.38;0.32;;;10.10;79.10;;;;;;5041381;28;20484;-70
2023/11/11 09:22:42;;;;;;;0.60;0.50;;;10.00;79.50;;;;;;5061800;28;20028;-70
2023/11/11 09:25:09;;;;;;;2.78;0.43;;;10.00;79.70;;;;;;5023664;28;20035;-64
2023/11/11 09:27:35;;;;;;;0.20;0.20;;;10.00;79.60;;;;;;5061445;28;20473;-64
2023/11/11 09:30:01;;;;;;;0.30;0.30;;;10.10;79.80;;;;;;5055272;28;20025;-64
2023/11/11 09:32:27;;;;;;;0.30;0.30;;;10.10;79.40;;;;;;5059832;28;20051;-64
2023/11/11 09:34:53;;;;;;;0.20;0.20;;;10.10;79.60;;;;;;5042979;28;20052;-65
2023/11/11 09:37:19;;;;;;;1.13;0.40;;;10.30;79.50;;;;;;5043868;28;20036;-65
2023/11/11 09:39:44;;;;;;;0.43;0.43;;;10.30;79.40;;;;;;5049708;28;20111;-64
2023/11/11 09:42:10;;;;;;;1.73;0.40;;;10.30;79.40;;;;;;5065127;28;20623;-65
2023/11/11 09:44:36;;;;;;;0.20;0.20;;;10.40;79.60;;;;;;5064209;28;20027;-66
2023/11/11 09:47:03;;;;;;;0.40;0.40;;;10.40;79.50;;;;;;5029252;28;20039;-65
2023/11/11 09:49:30;;;;;;;2.47;0.40;;;10.20;79.40;;;;;;5063145;28;20463;-70
2023/11/11 09:51:57;;;;;;;1.63;0.60;;;10.10;80.00;;;;;;5056918;28;20033;-71
2023/11/11 09:54:23;;;;;;;0.82;0.50;;;10.00;80.40;;;;;;5066064;28;20047;-69
2023/11/11 09:56:50;;;;;;;0.73;0.70;;;10.00;80.60;;;;;;5065458;28;20059;-69
2023/11/11 09:59:19;;;;;;;1.10;0.88;;;10.10;80.60;;;;;;5062877;28;20486;-68
2023/11/11 10:01:45;;;;;;;2.00;0.40;;;10.10;80.90;;;;;;5070048;28;20032;-68
2023/11/11 10:04:11;;;;;;;0.57;0.40;;;10.30;80.50;;;;;;5062193;28;20051;-72
2023/11/11 10:06:37;;;;;;;0.30;0.30;;;10.50;80.10;;;;;;5044940;28;20029;-71
2023/11/11 10:09:04;;;;;;;2.40;0.80;;;10.70;79.80;;;;;;5048755;28;20032;-71
2023/11/11 10:11:31;;;;;;;1.13;0.82;;;10.90;79.40;;;;;;5043713;28;20043;-69
2023/11/11 10:13:56;;;;;;;2.40;0.82;;;11.10;78.60;;;;;;5046018;28;20075;-72
2023/11/11 10:16:25;;;;;;;2.30;0.82;;;11.20;78.20;;;;;;5060800;28;20067;-70
2023/11/11 10:19:01;;;;;;;0.68;0.65;;;11.30;77.90;;;;;;5058117;28;20036;-72
2023/11/11 10:21:26;;;;;;;3.55;0.90;;;11.50;77.60;;;;;;5064813;28;20039;-71
2023/11/11 10:23:57;;;;;;;14.70;1.50;;;11.50;77.60;;;;;;5060148;28;20561;-71
2023/11/11 10:26:22;;;;;;;2.58;1.27;;;11.70;77.00;;;;;;5065733;28;20024;-72
2023/11/11 10:28:52;;;;;;;2.97;1.80;;;11.60;76.80;;;;;;5062180;28;20378;-72
2023/11/11 10:31:19;;;;;;;4.10;1.35;;;11.70;76.80;;;;;;5064782;28;20048;-72
2023/11/11 10:33:45;;;;;;;3.70;1.55;;;11.90;76.70;;;;;;5066352;28;20028;-72
2023/11/11 10:36:11;;;;;;;0.98;0.95;;;12.00;76.80;;;;;;5046618;28;20043;-72
2023/11/11 10:38:41;;;;;;;2.40;1.50;;;12.10;76.30;;;;;;5065347;28;20037;-73
2023/11/11 10:41:07;;;;;;;2.15;1.45;;;12.30;76.10;;;;;;5059633;28;20029;-73
2023/11/11 10:43:34;;;;;;;4.72;1.08;;;12.40;76.00;;;;;;5069231;28;20041;-72
2023/11/11 10:46:00;;;;;;;2.83;1.38;;;12.60;76.30;;;;;;5065312;28;20029;-65
2023/11/11 10:48:26;;;;;;;3.38;0.90;;;12.80;75.60;;;;;;5059093;28;20062;-65
2023/11/11 10:50:53;;;;;;;1.42;1.10;;;13.10;75.20;;;;;;5060769;28;20029;-65
2023/11/11 10:53:20;;;;;;;2.65;1.00;;;13.30;72.70;;;;;;5064198;28;20059;-65
2023/11/11 10:55:49;;;;;;;1.50;0.98;;;13.70;70.90;;;;;;5062042;28;20489;-65
2023/11/11 10:58:19;;;;;;;3.00;1.48;;;14.50;69.70;;;;;;5059311;28;20456;-65
2023/11/11 11:00:49;;;;;;;2.17;1.20;;;15.80;66.30;;;;;;5059563;28;20497;-65
2023/11/11 11:03:19;;;;;;;2.80;1.23;;;17.30;62.20;;;;;;5059186;28;20160;-66
2023/11/11 11:06:33;;;;;;;3.05;1.00;;;18.80;58.90;;;;;;5061037;28;20062;-66
2023/11/11 11:09:22;;;;;;;4.68;1.65;;;20.30;55.80;;;;;;5057730;28;20046;-65
2023/11/11 11:12:05;;;;;;;0.93;0.50;;;21.10;52.60;;;;;;5040640;28;20059;-73
2023/11/11 11:14:51;;;;;;;2.63;0.80;;;20.90;53.50;;;;;;5047287;28;20437;-73
2023/11/11 11:17:17;;;;;;;2.53;1.40;;;20.30;54.60;;;;;;5060368;28;20393;-73
2023/11/11 11:20:09;;;;;;;1.13;0.82;;;19.50;53.50;;;;;;5057452;28;20086;-73
2023/11/11 11:22:37;;;;;;;0.90;0.75;;;19.10;56.90;;;;;;5041796;28;20047;-73
2023/11/11 11:25:36;;;;;;;1.95;0.90;;;20.30;54.40;;;;;;5057170;28;20016;-73
2023/11/11 11:28:11;;;;;;;0.90;0.55;;;20.70;52.90;;;;;;5053273;28;20024;-73
2023/11/11 11:30:42;;;;;;;1.05;0.95;;;20.50;50.80;;;;;;5056467;28;20114;-70
2023/11/11 11:33:12;;;;;;;1.00;0.85;;;19.30;52.80;;;;;;5057831;28;20068;-69
2023/11/11 11:35:38;;;;;;;2.25;1.30;;;18.10;55.40;;;;;;5062618;28;20077;-73
2023/11/11 11:38:06;;;;;;;1.30;1.10;;;17.60;57.30;;;;;;5064170;28;20508;-73
2023/11/11 11:40:38;;;;;;;1.80;0.65;;;17.40;58.10;;;;;;5061667;28;20330;-69
2023/11/11 11:43:09;;;;;;;0.57;0.57;;;16.90;59.60;;;;;;5057866;28;20041;-72
2023/11/11 11:45:37;;;;;;;1.05;0.98;;;17.70;60.50;;;;;;5044537;28;20428;-71
2023/11/11 11:48:08;;;;;;;1.17;0.98;;;19.60;57.10;;;;;;5061489;28;20466;-71
2023/11/11 11:50:37;;;;;;;2.47;0.70;;;20.70;52.10;;;;;;5059211;28;20037;-70
2023/11/11 11:53:03;;;;;;;1.40;1.10;;;22.00;51.80;;;;;;5064359;28;20033;-70
2023/11/11 11:55:40;;;;;;;4.43;0.80;;;23.20;47.90;;;;;;5038950;28;20056;-71
2023/11/11 11:58:06;;;;;;;1.33;0.90;;;24.10;46.80;;;;;;5062510;28;20028;-69
2023/11/11 12:00:36;;;;;;;1.05;0.57;;;24.90;45.80;;;;;;5039813;28;20047;-71
2023/11/11 12:03:02;;;;;;;1.60;0.65;;;25.80;44.00;;;;;;5064532;28;20052;-71
2023/11/11 12:05:28;;;;;;;0.82;0.63;;;26.30;42.50;;;;;;5060132;28;20032;-72
2023/11/11 12:07:54;;;;;;;2.33;0.80;;;26.20;40.30;;;;;;5063480;28;20473;-72
2023/11/11 12:10:20;;;;;;;0.70;0.70;;;24.50;41.70;;;;;;5038833;28;20247;-73
2023/11/11 12:12:47;;;;;;;0.90;0.60;;;22.40;44.90;;;;;;5041039;28;20047;-72
2023/11/11 12:15:15;;;;;;;0.57;0.57;;;21.10;47.70;;;;;;5039503;28;20041;-72
2023/11/11 12:17:46;;;;;;;1.58;0.60;;;21.10;48.30;;;;;;5058765;28;20029;-73
2023/11/11 12:20:13;;;;;;;1.50;0.70;;;20.80;48.70;;;;;;5063094;28;20047;-72
2023/11/11 12:22:44;;;;;;;1.00;0.73;;;20.10;50.20;;;;;;5043932;28;20028;-73
2023/11/11 12:25:10;;;;;;;1.15;0.55;;;20.40;50.70;;;;;;5040205;28;20106;-72
2023/11/11 12:27:37;;;;;;;0.50;0.35;;;20.90;48.90;;;;;;5061546;28;20571;-72
2023/11/11 12:30:19;;;;;;;2.30;0.50;;;20.40;48.40;;;;;;5058157;28;20028;-72
2023/11/11 12:33:00;;;;;;;0.50;0.40;;;20.10;49.40;;;;;;5054049;28;20028;-72
2023/11/11 12:35:26;;;;;;;0.60;0.38;;;20.00;49.80;;;;;;5060500;28;20036;-72
2023/11/11 12:37:53;;;;;;;0.50;0.50;;;19.90;49.40;;;;;;5054644;28;20427;-73
2023/11/11 12:40:30;;;;;;;0.50;0.40;;;20.30;50.00;;;;;;5056309;28;20048;-72
2023/11/11 12:42:55;;;;;;;1.10;0.30;;;20.30;48.80;;;;;;5059526;28;20032;-72
2023/11/11 12:45:21;;;;;;;1.30;0.88;;;19.70;49.80;;;;;;5060985;28;20028;-73
2023/11/11 12:47:52;;;;;;;1.25;0.55;;;18.90;51.10;;;;;;5058498;28;20532;-75
2023/11/11 12:50:17;;;;;;;1.25;0.47;;;18.10;52.90;;;;;;5065115;28;20029;-75
2023/11/11 12:53:05;;;;;;;0.50;0.50;;;17.30;54.30;;;;;;5061676;28;20040;-73